Current Weather

Heathrow

Heathrow, United Kingdom (EGLL)

Report from: Sunday, November 27, 2022 7:20 AM GMT
Current time: Sunday, November 27, 2022 7:39 AM GMT

Nearby weather
Weather history
Weather forecast

Present weatherLight rain
Temperature12.0°C (53.6°F)
Dew point11.0°C (51.8°F)
Winds 5 kts (2.6 m/s, 5.8 mph) Vrb
Winds variableWinds variable
Visibility6.2 mi. (10 km)
Clouds Ceiling: Broken clouds 500 ft. (152 m)
Overcast 800 ft. (244 m)
Altimeter29.94 in.Hg (1014 mB)
Relative humidity94 %
Density altitude-198 ft. (-60 m)
Remarks Fully automated report
Flight conditions Instrument Meteorological Conditions
Raw dataEGLL 270720Z AUTO VRB05KT 9999 -RA BKN005 OVC008 12/11 Q1014
An error has occurred. This application may no longer respond until reloaded. Reload 🗙